Time,TemperatureF,DewpointF,PressureIn,WindDirection,WindDirectionDegrees,WindSpeedMPH,WindSpeedGustMPH,Humidity,HourlyPrecipIn,Conditions,Clouds,dailyrainin,SolarRadiationWatts/m^2,SoftwareType,DateUTC
2013-01-07 00:02:00,41.9,39.7,30.01,WSW,246,0.0,0.0,92,0.00,RA,,0.00,0.0,WeatherDisplay:10.37,2013-01-07 08:02:00,
2013-01-07 00:07:00,41.7,39.5,30.01,WSW,246,0.0,0.0,92,0.00,CLR,,0.00,0.0,WeatherDisplay:10.37,2013-01-07 08:07:00,
2013-01-07 00:12:00,41.7,39.8,30.01,WSW,246,0.0,0.0,93,0.00,CLR,,0.00,0.0,WeatherDisplay:10.37,2013-01-07 08:12:00,
2013-01-07 00:17:00,41.7,39.8,30.01,WSW,246,0.0,0.0,93,0.00,CLR,,0.00,0.0,WeatherDisplay:10.37,2013-01-07 08:17:00,
2013-01-07 00:22:00,41.7,39.8,30.01,WSW,246,0.0,0.0,93,0.00,CLR,,0.00,0.0,WeatherDisplay:10.37,2013-01-07 08:22:00,
2013-01-07 00:27:00,41.6,39.7,30.01,WSW,244,0.0,0.0,93,0.00,CLR,,0.00,0.0,WeatherDisplay:10.37,2013-01-07 08:27:00,
2013-01-07 00:32:00,41.6,39.7,30.01,WNW,285,0.1,1.1,93,0.00,CLR,,0.00,0.0,WeatherDisplay:10.37,2013-01-07 08:32:00,
2013-01-07 00:37:00,41.6,40.0,30.01,West,267,0.8,1.1,94,0.00,CLR,,0.00,0.0,WeatherDisplay:10.37,2013-01-07 08:37:00,
2013-01-07 00:42:00,41.7,40.1,30.01,West,276,0.0,0.0,94,0.00,CLR,,0.00,0.0,WeatherDisplay:10.37,2013-01-07 08:42:00,
2013-01-07 00:47:00,41.7,39.8,30.01,West,276,0.0,0.0,93,0.00,CLR,,0.00,0.0,WeatherDisplay:10.37,2013-01-07 08:47:00,
2013-01-07 00:52:00,41.8,39.9,30.00,West,276,0.0,0.0,93,0.00,CLR,,0.00,0.0,WeatherDisplay:10.37,2013-01-07 08:52:00,
2013-01-07 00:57:00,41.8,39.9,30.00,West,261,0.0,0.0,93,0.00,CLR,,0.00,0.0,WeatherDisplay:10.37,2013-01-07 08:57:00,
2013-01-07 01:02:00,41.8,39.9,30.00,West,260,0.0,0.0,93,0.00,CLR,,0.00,0.0,WeatherDisplay:10.37,2013-01-07 09:02:00,
2013-01-07 01:07:00,41.7,39.8,30.00,West,260,0.0,0.0,93,0.00,CLR,,0.00,0.0,WeatherDisplay:10.37,2013-01-07 09:07:00,
2013-01-07 01:12:00,41.7,39.8,30.00,West,260,0.0,0.0,93,0.00,CLR,,0.00,0.0,WeatherDisplay:10.37,2013-01-07 09:12:00,
2013-01-07 01:17:00,41.7,39.8,30.00,West,260,0.0,0.0,93,0.00,CLR,,0.00,0.0,WeatherDisplay:10.37,2013-01-07 09:17:00,
2013-01-07 01:22:00,41.6,39.7,30.00,SW,236,0.1,1.1,93,0.00,CLR,,0.00,0.0,WeatherDisplay:10.37,2013-01-07 09:22:00,
2013-01-07 01:27:00,41.6,39.7,30.00,SW,236,0.0,0.0,93,0.00,CLR,,0.00,0.0,WeatherDisplay:10.37,2013-01-07 09:27:00,
2013-01-07 01:32:00,41.7,39.8,30.00,SW,236,0.0,0.0,93,0.00,CLR,,0.00,0.0,WeatherDisplay:10.37,2013-01-07 09:32:00,
2013-01-07 01:37:00,41.8,39.9,30.00,WSW,242,0.0,0.0,93,0.00,CLR,,0.00,0.0,WeatherDisplay:10.37,2013-01-07 09:37:00,
2013-01-07 01:42:00,41.9,40.0,29.99,WSW,241,0.0,1.0,93,0.00,CLR,,0.00,0.0,WeatherDisplay:10.37,2013-01-07 09:42:00,
2013-01-07 01:47:00,41.9,40.0,29.99,WSW,241,0.0,0.0,93,0.00,CLR,,0.00,0.0,WeatherDisplay:10.37,2013-01-07 09:47:00,
2013-01-07 01:52:00,41.8,39.9,29.99,WSW,241,0.0,0.0,93,0.00,CLR,,0.00,0.0,WeatherDisplay:10.37,2013-01-07 09:52:00,
2013-01-07 01:57:00,41.8,39.9,29.99,WSW,241,0.0,0.0,93,0.00,CLR,,0.00,0.0,WeatherDisplay:10.37,2013-01-07 09:57:00,
2013-01-07 02:02:00,41.7,39.8,29.99,WNW,298,0.0,1.1,93,0.00,CLR,,0.00,0.0,WeatherDisplay:10.37,2013-01-07 10:02:00,
2013-01-07 02:07:00,41.6,39.7,29.99,North,351,0.0,0.0,93,0.00,CLR,,0.00,0.0,WeatherDisplay:10.37,2013-01-07 10:07:00,
2013-01-07 02:12:00,41.5,39.6,29.99,North,351,0.0,0.0,93,0.00,CLR,,0.00,0.0,WeatherDisplay:10.37,2013-01-07 10:12:00,
2013-01-07 02:17:00,41.5,39.6,29.99,North,351,0.0,0.0,93,0.00,CLR,,0.00,0.0,WeatherDisplay:10.37,2013-01-07 10:17:00,
2013-01-07 02:22:00,41.4,39.5,29.99,North,351,0.0,0.0,93,0.00,CLR,,0.00,0.0,WeatherDisplay:10.37,2013-01-07 10:22:00,
2013-01-07 02:27:00,41.3,39.4,29.99,North,350,0.0,0.0,93,0.00,CLR,,0.00,0.0,WeatherDisplay:10.37,2013-01-07 10:27:00,
2013-01-07 02:32:00,41.1,39.0,29.99,North,350,0.0,0.0,92,0.00,CLR,,0.00,0.0,WeatherDisplay:10.37,2013-01-07 10:32:00,
2013-01-07 02:37:00,41.0,38.9,29.99,North,350,0.0,0.0,92,0.00,CLR,,0.00,0.0,WeatherDisplay:10.37,2013-01-07 10:37:00,
2013-01-07 02:42:00,40.8,38.7,29.99,North,350,0.0,0.0,92,0.00,CLR,,0.00,0.0,WeatherDisplay:10.37,2013-01-07 10:42:00,
2013-01-07 02:47:00,40.6,38.5,29.99,North,350,0.0,0.0,92,0.00,CLR,,0.00,0.0,WeatherDisplay:10.37,2013-01-07 10:47:00,
2013-01-07 02:52:00,40.4,38.3,29.99,North,350,0.0,0.0,92,0.00,CLR,,0.00,0.0,WeatherDisplay:10.37,2013-01-07 10:52:00,
2013-01-07 02:57:00,40.2,38.1,29.99,North,350,0.0,0.0,92,0.00,CLR,,0.00,0.0,WeatherDisplay:10.37,2013-01-07 10:57:00,
2013-01-07 03:02:00,40.0,38.1,29.99,North,350,0.0,0.0,93,0.00,CLR,,0.00,0.0,WeatherDisplay:10.37,2013-01-07 11:02:00,
2013-01-07 03:08:00,39.9,38.0,29.99,North,350,0.0,0.0,93,0.00,CLR,,0.00,0.0,WeatherDisplay:10.37,2013-01-07 11:08:00,
2013-01-07 03:13:00,39.8,37.9,29.99,North,350,0.0,0.0,93,0.00,CLR,,0.00,0.0,WeatherDisplay:10.37,2013-01-07 11:13:00,
2013-01-07 03:18:00,39.6,37.7,29.99,North,350,0.0,0.0,93,0.00,CLR,,0.00,0.0,WeatherDisplay:10.37,2013-01-07 11:18:00,
2013-01-07 03:23:00,39.5,37.6,29.98,North,350,0.0,0.0,93,0.00,CLR,,0.00,0.0,WeatherDisplay:10.37,2013-01-07 11:23:00,
2013-01-07 03:28:00,39.1,37.2,29.99,North,351,0.0,0.0,93,0.00,CLR,,0.00,0.0,WeatherDisplay:10.37,2013-01-07 11:28:00,
2013-01-07 03:33:00,39.0,37.4,29.98,North,351,0.0,0.0,94,0.00,CLR,,0.00,0.0,WeatherDisplay:10.37,2013-01-07 11:33:00,
2013-01-07 03:38:00,38.8,36.9,29.98,North,351,0.0,0.0,93,0.00,CLR,,0.00,0.0,WeatherDisplay:10.37,2013-01-07 11:38:00,
2013-01-07 03:43:00,38.6,37.0,29.99,North,351,0.0,0.0,94,0.00,CLR,,0.00,0.0,WeatherDisplay:10.37,2013-01-07 11:43:00,
2013-01-07 03:48:00,38.5,36.9,29.99,North,351,0.0,0.0,94,0.00,CLR,,0.00,0.0,WeatherDisplay:10.37,2013-01-07 11:48:00,
2013-01-07 03:53:00,38.4,36.8,29.99,NW,313,0.1,1.1,94,0.00,CLR,,0.00,0.0,WeatherDisplay:10.37,2013-01-07 11:53:00,
2013-01-07 03:58:00,38.2,36.6,29.99,NW,313,0.0,0.0,94,0.00,CLR,,0.00,0.0,WeatherDisplay:10.37,2013-01-07 11:58:00,
2013-01-07 04:03:00,38.0,36.4,29.99,NW,312,0.1,1.1,94,0.00,CLR,,0.00,0.0,WeatherDisplay:10.37,2013-01-07 12:03:00,
2013-01-07 04:08:00,37.8,36.2,29.98,NW,312,0.0,0.0,94,0.00,CLR,,0.00,0.0,WeatherDisplay:10.37,2013-01-07 12:08:00,
2013-01-07 04:13:00,37.5,35.7,29.99,NNE,33,1.5,2.3,93,0.00,CLR,,0.00,0.0,WeatherDisplay:10.37,2013-01-07 12:13:00,
2013-01-07 04:18:00,37.5,36.2,29.99,ENE,57,0.0,0.0,95,0.00,,,0.00,0.0,WeatherDisplay:10.37,2013-01-07 12:18:00,
2013-01-07 04:23:00,37.6,36.3,29.99,NE,42,0.0,0.0,95,0.00,,,0.00,0.0,WeatherDisplay:10.37,2013-01-07 12:23:00,
2013-01-07 04:28:00,37.5,35.9,29.98,NE,42,0.0,0.0,94,0.00,CLR,,0.00,0.0,WeatherDisplay:10.37,2013-01-07 12:28:00,
2013-01-07 04:33:00,37.3,36.0,29.98,NE,49,0.0,0.0,95,0.00,,,0.00,0.0,WeatherDisplay:10.37,2013-01-07 12:33:00,
2013-01-07 04:38:00,37.3,36.0,29.99,ENE,59,1.9,3.5,95,0.00,,,0.00,0.0,WeatherDisplay:10.37,2013-01-07 12:38:00,
2013-01-07 04:43:00,37.5,36.5,29.99,WSW,257,0.0,1.1,96,0.00,,,0.00,0.0,WeatherDisplay:10.37,2013-01-07 12:43:00,
2013-01-07 04:48:00,37.3,36.0,29.99,SE,144,0.0,0.0,95,0.00,,,0.00,0.0,WeatherDisplay:10.37,2013-01-07 12:48:00,
2013-01-07 04:53:00,37.1,35.8,29.99,ENE,74,1.4,2.3,95,0.00,,,0.00,0.0,WeatherDisplay:10.37,2013-01-07 12:53:00,
2013-01-07 04:58:00,36.8,35.2,30.00,NE,39,0.0,0.0,94,0.00,CLR,,0.00,0.0,WeatherDisplay:10.37,2013-01-07 12:58:00,
2013-01-07 05:03:00,36.6,35.3,30.00,NE,38,0.0,0.0,95,0.00,CLR,,0.00,0.0,WeatherDisplay:10.37,2013-01-07 13:03:00,
2013-01-07 05:08:00,36.4,35.1,30.00,NE,38,0.0,0.0,95,0.00,CLR,,0.00,0.0,WeatherDisplay:10.37,2013-01-07 13:08:00,
2013-01-07 05:13:00,36.2,34.9,30.00,NE,38,0.0,0.0,95,0.00,,,0.00,0.0,WeatherDisplay:10.37,2013-01-07 13:13:00,
2013-01-07 05:18:00,36.2,34.9,30.00,ENE,73,1.1,2.3,95,0.00,,,0.00,0.0,WeatherDisplay:10.37,2013-01-07 13:18:00,
2013-01-07 05:23:00,36.2,34.9,30.00,ENE,65,0.0,0.0,95,0.00,,,0.00,0.0,WeatherDisplay:10.37,2013-01-07 13:23:00,
2013-01-07 05:28:00,36.3,35.3,30.01,NNE,23,0.0,1.1,96,0.00,,,0.00,0.0,WeatherDisplay:10.37,2013-01-07 13:28:00,
2013-01-07 05:33:00,36.4,35.4,30.01,NNE,23,0.0,0.0,96,0.00,,,0.00,0.0,WeatherDisplay:10.37,2013-01-07 13:33:00,
2013-01-07 05:38:00,36.4,35.4,30.01,NNE,19,0.0,0.0,96,0.00,,,0.00,0.0,WeatherDisplay:10.37,2013-01-07 13:38:00,
2013-01-07 05:43:00,36.5,35.5,30.01,NNE,19,0.0,0.0,96,0.00,,,0.00,0.0,WeatherDisplay:10.37,2013-01-07 13:43:00,
2013-01-07 05:48:00,36.5,35.5,30.01,NNE,19,0.0,0.0,96,0.00,,,0.00,0.0,WeatherDisplay:10.37,2013-01-07 13:48:00,
2013-01-07 05:53:00,36.4,35.4,30.01,NE,39,0.0,1.1,96,0.00,,,0.00,0.0,WeatherDisplay:10.37,2013-01-07 13:53:00,
2013-01-07 05:58:00,36.4,35.4,30.02,NE,42,0.0,0.0,96,0.00,,,0.00,0.0,WeatherDisplay:10.37,2013-01-07 13:58:00,
2013-01-07 06:03:00,36.5,35.5,30.02,NE,42,0.0,0.0,96,0.00,,,0.00,0.0,WeatherDisplay:10.37,2013-01-07 14:03:00,
2013-01-07 06:08:00,36.5,35.5,30.02,NE,42,0.0,0.0,96,0.00,,,0.00,0.0,WeatherDisplay:10.37,2013-01-07 14:08:00,
2013-01-07 06:13:00,36.7,35.7,30.03,NE,42,0.1,1.1,96,0.00,,,0.00,0.0,WeatherDisplay:10.37,2013-01-07 14:13:00,
2013-01-07 06:18:00,36.8,35.8,30.03,NNE,25,0.0,0.0,96,0.00,,,0.00,0.0,WeatherDisplay:10.37,2013-01-07 14:18:00,
2013-01-07 06:23:00,36.8,35.8,30.03,NNE,21,0.0,0.0,96,0.00,,,0.00,0.0,WeatherDisplay:10.37,2013-01-07 14:23:00,
2013-01-07 06:29:00,36.8,35.8,30.03,NNE,21,0.0,0.0,96,0.00,,,0.00,0.0,WeatherDisplay:10.37,2013-01-07 14:29:00,
2013-01-07 06:34:00,36.8,35.8,30.03,NNE,21,0.0,0.0,96,0.00,,,0.00,0.0,WeatherDisplay:10.37,2013-01-07 14:34:00,
2013-01-07 06:39:00,36.7,35.7,30.04,NNE,15,0.1,1.1,96,0.00,,,0.00,0.0,WeatherDisplay:10.37,2013-01-07 14:39:00,
2013-01-07 06:44:00,36.5,35.5,30.04,NNE,15,0.0,0.0,96,0.00,,,0.00,0.0,WeatherDisplay:10.37,2013-01-07 14:44:00,
2013-01-07 06:49:00,36.4,35.4,30.04,NNE,15,0.0,0.0,96,0.00,,,0.00,0.0,WeatherDisplay:10.37,2013-01-07 14:49:00,
2013-01-07 06:54:00,36.8,35.8,30.04,NNE,15,0.0,0.0,96,0.00,,,0.00,0.0,WeatherDisplay:10.37,2013-01-07 14:54:00,
2013-01-07 06:59:00,36.8,35.8,30.05,NNE,15,0.0,0.0,96,0.00,,,0.00,5.0,WeatherDisplay:10.37,2013-01-07 14:59:00,
2013-01-07 07:04:00,36.5,35.5,30.05,NNE,15,0.0,0.0,96,0.00,,,0.00,7.0,WeatherDisplay:10.37,2013-01-07 15:04:00,
2013-01-07 07:09:00,36.1,34.8,30.05,NNE,15,0.0,0.0,95,0.00,,,0.00,11.0,WeatherDisplay:10.37,2013-01-07 15:09:00,
2013-01-07 07:14:00,35.9,34.9,30.05,SE,146,0.0,1.1,96,0.00,,,0.00,14.0,WeatherDisplay:10.37,2013-01-07 15:14:00,
2013-01-07 07:19:00,35.6,34.6,30.05,East,89,0.0,1.1,96,0.00,,,0.00,32.0,WeatherDisplay:10.37,2013-01-07 15:19:00,
2013-01-07 07:24:00,35.5,34.5,30.05,East,94,0.1,1.1,96,0.00,,,0.00,28.0,WeatherDisplay:10.37,2013-01-07 15:24:00,
2013-01-07 07:29:00,35.5,34.5,30.05,East,94,0.0,0.0,96,0.00,,,0.00,40.0,WeatherDisplay:10.37,2013-01-07 15:29:00,
2013-01-07 07:34:00,35.7,34.7,30.05,East,94,0.0,0.0,96,0.00,,,0.00,60.0,WeatherDisplay:10.37,2013-01-07 15:34:00,
2013-01-07 07:39:00,36.0,35.0,30.05,East,94,0.0,0.0,96,0.00,,,0.00,95.0,WeatherDisplay:10.37,2013-01-07 15:39:00,
2013-01-07 07:44:00,36.5,35.5,30.05,East,94,0.0,0.0,96,0.00,,,0.00,114.0,WeatherDisplay:10.37,2013-01-07 15:44:00,
2013-01-07 07:49:00,37.5,36.7,30.06,East,94,0.0,0.0,97,0.00,,,0.00,132.0,WeatherDisplay:10.37,2013-01-07 15:49:00,
2013-01-07 07:54:00,38.7,37.9,30.06,South,180,0.1,1.1,97,0.00,,,0.00,149.0,WeatherDisplay:10.37,2013-01-07 15:54:00,
2013-01-07 07:59:00,38.8,38.0,30.06,SSW,192,0.4,2.3,97,0.00,,,0.00,167.0,WeatherDisplay:10.37,2013-01-07 15:59:00,
2013-01-07 08:04:00,39.4,38.6,30.07,SSW,192,0.0,0.0,97,0.00,OVC,,0.00,176.0,WeatherDisplay:10.37,2013-01-07 16:04:00,
2013-01-07 08:09:00,40.7,39.9,30.07,SSW,192,0.0,0.0,97,0.00,OVC,,0.00,204.0,WeatherDisplay:10.37,2013-01-07 16:09:00,
2013-01-07 08:14:00,41.8,41.0,30.07,ESE,115,0.0,0.0,97,0.00,OVC,,0.00,221.0,WeatherDisplay:10.37,2013-01-07 16:14:00,
2013-01-07 08:19:00,42.3,41.5,30.07,ENE,67,1.0,2.3,97,0.00,OVC,,0.00,237.0,WeatherDisplay:10.37,2013-01-07 16:19:00,
2013-01-07 08:24:00,42.9,42.1,30.08,NE,36,0.9,2.3,97,0.00,OVC,,0.00,253.0,WeatherDisplay:10.37,2013-01-07 16:24:00,
2013-01-07 08:29:00,43.2,42.1,30.08,ENE,61,2.2,3.5,96,0.00,OVC,,0.00,243.0,WeatherDisplay:10.37,2013-01-07 16:29:00,
2013-01-07 08:34:00,43.3,40.6,30.08,ENE,66,1.3,3.5,90,0.00,OVC,,0.00,279.0,WeatherDisplay:10.37,2013-01-07 16:34:00,
2013-01-07 08:39:00,43.7,41.0,30.08,NE,51,0.9,2.3,90,0.00,OVC,,0.00,294.0,WeatherDisplay:10.37,2013-01-07 16:39:00,
2013-01-07 08:44:00,44.2,41.2,30.08,NE,45,1.4,2.3,89,0.00,OVC,,0.00,306.0,WeatherDisplay:10.37,2013-01-07 16:44:00,
2013-01-07 08:49:00,44.6,41.6,30.08,NE,48,1.5,3.5,89,0.00,OVC,,0.00,322.0,WeatherDisplay:10.37,2013-01-07 16:49:00,
2013-01-07 08:54:00,45.1,41.8,30.08,NE,48,0.5,1.1,88,0.00,OVC,,0.00,334.0,WeatherDisplay:10.37,2013-01-07 16:54:00,
2013-01-07 08:59:00,45.4,41.8,30.08,ENE,74,1.8,3.5,87,0.00,OVC,,0.00,348.0,WeatherDisplay:10.37,2013-01-07 16:59:00,
2013-01-07 09:04:00,45.6,41.4,30.08,NE,38,1.5,3.5,85,0.00,OVC,,0.00,362.0,WeatherDisplay:10.37,2013-01-07 17:04:00,
2013-01-07 09:09:00,46.3,41.7,30.08,East,80,1.3,3.5,84,0.00,OVC,,0.00,371.0,WeatherDisplay:10.37,2013-01-07 17:09:00,
2013-01-07 09:14:00,46.6,42.0,30.09,ENE,77,1.3,2.3,84,0.00,OVC,,0.00,385.0,WeatherDisplay:10.37,2013-01-07 17:14:00,
2013-01-07 09:19:00,46.9,42.0,30.09,NE,42,1.6,2.3,83,0.00,OVC,,0.00,397.0,WeatherDisplay:10.37,2013-01-07 17:19:00,
2013-01-07 09:24:00,47.4,42.5,30.09,ESE,110,0.2,2.3,83,0.00,OVC,,0.00,410.0,WeatherDisplay:10.37,2013-01-07 17:24:00,
2013-01-07 09:29:00,48.0,42.1,30.09,NE,47,1.1,2.3,80,0.00,OVC,,0.00,422.0,WeatherDisplay:10.37,2013-01-07 17:29:00,
2013-01-07 09:34:00,48.6,43.7,30.09,NE,47,0.0,0.0,83,0.00,OVC,,0.00,436.0,WeatherDisplay:10.37,2013-01-07 17:34:00,
2013-01-07 09:39:00,49.1,42.2,30.09,NE,51,0.8,2.3,77,0.00,OVC,,0.00,450.0,WeatherDisplay:10.37,2013-01-07 17:39:00,
2013-01-07 09:44:00,49.5,40.8,30.09,NE,50,1.3,2.3,72,0.00,OVC,,0.00,462.0,WeatherDisplay:10.37,2013-01-07 17:44:00,
2013-01-07 09:49:00,49.4,40.7,30.09,ENE,69,2.5,3.5,72,0.00,OVC,,0.00,476.0,WeatherDisplay:10.37,2013-01-07 17:49:00,
2013-01-07 09:54:00,49.4,41.5,30.09,SSE,149,0.0,1.1,74,0.00,OVC,,0.00,499.0,WeatherDisplay:10.37,2013-01-07 17:54:00,
2013-01-07 09:59:00,50.0,41.3,30.08,ESE,117,0.0,0.0,72,0.00,OVC,,0.00,515.0,WeatherDisplay:10.37,2013-01-07 17:59:00,
2013-01-07 10:04:00,50.8,41.7,30.08,NE,34,0.0,2.3,71,0.00,OVC,,0.00,529.0,WeatherDisplay:10.37,2013-01-07 18:04:00,
2013-01-07 10:09:00,51.5,40.1,30.08,NE,53,2.6,4.6,65,0.00,OVC,,0.00,541.0,WeatherDisplay:10.37,2013-01-07 18:09:00,
2013-01-07 10:14:00,52.2,36.5,30.08,ENE,66,5.0,11.5,55,0.00,OVC,,0.00,548.0,WeatherDisplay:10.37,2013-01-07 18:14:00,
2013-01-07 10:19:00,52.6,35.5,30.08,ENE,67,5.6,6.9,52,0.00,OVC,,0.00,557.0,WeatherDisplay:10.37,2013-01-07 18:19:00,
2013-01-07 10:24:00,53.0,34.3,30.08,NNE,33,4.4,6.9,49,0.00,OVC,,0.00,568.0,WeatherDisplay:10.37,2013-01-07 18:24:00,
2013-01-07 10:29:00,53.5,33.7,30.08,NNE,12,5.7,9.2,47,0.00,OVC,,0.00,575.0,WeatherDisplay:10.37,2013-01-07 18:29:00,
2013-01-07 10:34:00,53.9,34.1,30.07,NE,47,4.0,5.8,47,0.00,OVC,,0.00,582.0,WeatherDisplay:10.37,2013-01-07 18:34:00,
2013-01-07 10:39:00,54.2,33.3,30.07,ENE,61,5.9,9.2,45,0.00,OVC,,0.00,589.0,WeatherDisplay:10.37,2013-01-07 18:39:00,
2013-01-07 10:44:00,54.5,32.4,30.07,NNE,27,5.6,8.1,43,0.00,OVC,,0.00,596.0,WeatherDisplay:10.37,2013-01-07 18:44:00,
2013-01-07 10:49:00,54.8,32.7,30.07,NE,41,4.6,5.8,43,0.00,OVC,,0.00,603.0,WeatherDisplay:10.37,2013-01-07 18:49:00,
2013-01-07 10:54:00,54.9,32.8,30.07,NE,50,5.7,8.1,43,0.00,OVC,,0.00,610.0,WeatherDisplay:10.37,2013-01-07 18:54:00,
2013-01-07 10:59:00,55.1,33.0,30.06,NNE,18,6.3,10.4,43,0.00,OVC,,0.00,613.0,WeatherDisplay:10.37,2013-01-07 18:59:00,
2013-01-07 11:04:00,55.5,32.8,30.06,NNE,17,4.7,6.9,42,0.00,OVC,,0.00,619.0,WeatherDisplay:10.37,2013-01-07 19:04:00,
2013-01-07 11:09:00,56.0,34.9,30.05,ENE,57,3.1,5.8,45,0.00,OVC,,0.00,622.0,WeatherDisplay:10.37,2013-01-07 19:09:00,
2013-01-07 11:14:00,56.8,33.9,30.04,NE,49,5.2,5.8,42,0.00,OVC,,0.00,626.0,WeatherDisplay:10.37,2013-01-07 19:14:00,
2013-01-07 11:19:00,57.1,31.7,30.04,North,11,2.3,4.6,38,0.00,OVC,,0.00,631.0,WeatherDisplay:10.37,2013-01-07 19:19:00,
2013-01-07 11:24:00,57.5,36.3,30.04,NE,37,2.6,3.5,45,0.00,OVC,,0.00,633.0,WeatherDisplay:10.37,2013-01-07 19:24:00,
2013-01-07 11:29:00,57.7,34.1,30.03,ESE,115,2.3,3.5,41,0.00,OVC,,0.00,636.0,WeatherDisplay:10.37,2013-01-07 19:29:00,
2013-01-07 11:34:00,57.8,35.4,30.03,NE,50,2.1,5.8,43,0.00,OVC,,0.00,636.0,WeatherDisplay:10.37,2013-01-07 19:34:00,
2013-01-07 11:39:00,57.8,34.8,30.03,SSW,213,0.6,2.3,42,0.00,OVC,,0.00,638.0,WeatherDisplay:10.37,2013-01-07 19:39:00,
2013-01-07 11:44:00,58.3,38.1,30.02,SSW,206,2.0,3.5,47,0.00,OVC,,0.00,640.0,WeatherDisplay:10.37,2013-01-07 19:44:00,
2013-01-07 11:49:00,58.6,36.2,30.02,SSW,194,0.9,3.5,43,0.00,OVC,,0.00,642.0,WeatherDisplay:10.37,2013-01-07 19:49:00,
2013-01-07 11:54:00,59.1,36.6,30.02,WSW,250,2.2,3.0,43,0.00,OVC,,0.00,643.0,WeatherDisplay:10.37,2013-01-07 19:54:00,
2013-01-07 12:00:00,59.8,35.4,30.02,South,190,2.5,4.6,40,0.00,OVC,,0.00,642.0,WeatherDisplay:10.37,2013-01-07 20:00:00,
2013-01-07 12:05:00,60.3,37.1,30.01,ESE,117,0.3,2.3,42,0.00,OVC,,0.00,640.0,WeatherDisplay:10.37,2013-01-07 20:05:00,
2013-01-07 12:10:00,60.1,36.3,30.01,SW,217,0.4,2.3,41,0.00,OVC,,0.00,638.0,WeatherDisplay:10.37,2013-01-07 20:10:00,
2013-01-07 12:15:00,60.6,35.5,30.01,SSE,157,0.0,1.1,39,0.00,OVC,,0.00,640.0,WeatherDisplay:10.37,2013-01-07 20:15:00,
2013-01-07 12:19:00,60.9,33.7,30.00,SE,146,0.0,1.1,36,0.00,OVC,,0.00,636.0,WeatherDisplay:10.37,2013-01-07 20:19:00,
2013-01-07 12:24:00,61.3,33.4,30.00,East,96,0.2,1.1,35,0.00,OVC,,0.00,633.0,WeatherDisplay:10.37,2013-01-07 20:24:00,
2013-01-07 12:29:00,61.6,35.1,30.00,East,98,0.7,2.3,37,0.00,OVC,,0.00,631.0,WeatherDisplay:10.37,2013-01-07 20:29:00,
2013-01-07 12:34:00,61.0,35.8,30.00,ENE,68,0.9,2.3,39,0.00,OVC,,0.00,628.0,WeatherDisplay:10.37,2013-01-07 20:34:00,
2013-01-07 12:39:00,60.3,31.8,29.99,East,80,0.7,2.3,34,0.00,OVC,,0.00,622.0,WeatherDisplay:10.37,2013-01-07 20:39:00,
2013-01-07 12:44:00,60.9,34.4,29.99,SW,221,4.4,6.9,37,0.00,OVC,,0.00,621.0,WeatherDisplay:10.37,2013-01-07 20:44:00,
2013-01-07 12:49:00,62.0,34.0,29.99,SSW,207,2.8,4.6,35,0.00,OVC,,0.00,613.0,WeatherDisplay:10.37,2013-01-07 20:49:00,
2013-01-07 12:54:00,62.7,35.3,29.99,WSW,252,0.5,2.0,36,0.00,OVC,,0.00,610.0,WeatherDisplay:10.37,2013-01-07 20:54:00,
2013-01-07 12:59:00,63.1,31.1,29.99,SW,233,1.4,3.5,30,0.00,OVC,,0.00,599.0,WeatherDisplay:10.37,2013-01-07 20:59:00,
2013-01-07 13:04:00,62.7,32.4,29.98,ENE,78,2.4,3.5,32,0.00,OVC,,0.00,596.0,WeatherDisplay:10.37,2013-01-07 21:04:00,
2013-01-07 13:09:00,62.0,28.5,29.98,WSW,254,3.6,8.1,28,0.00,OVC,,0.00,587.0,WeatherDisplay:10.37,2013-01-07 21:09:00,
2013-01-07 13:14:00,62.3,33.6,29.98,North,5,1.0,4.0,34,0.00,OVC,,0.00,582.0,WeatherDisplay:10.37,2013-01-07 21:14:00,
2013-01-07 13:19:00,62.5,32.2,29.98,NNE,29,1.8,1.8,32,0.00,OVC,,0.00,575.0,WeatherDisplay:10.37,2013-01-07 21:19:00,
2013-01-07 13:24:00,62.2,31.2,29.98,NE,50,1.8,3.5,31,0.00,OVC,,0.00,570.0,WeatherDisplay:10.37,2013-01-07 21:24:00,
2013-01-07 13:29:00,62.3,32.0,29.98,WSW,250,0.7,1.1,32,0.00,OVC,,0.00,559.0,WeatherDisplay:10.37,2013-01-07 21:29:00,
2013-01-07 13:34:00,62.9,31.0,29.98,NNE,21,1.9,3.5,30,0.00,OVC,,0.00,550.0,WeatherDisplay:10.37,2013-01-07 21:34:00,
2013-01-07 13:39:00,62.7,29.1,29.98,ENE,60,0.9,2.0,28,0.00,OVC,,0.00,540.0,WeatherDisplay:10.37,2013-01-07 21:39:00,
2013-01-07 13:44:00,62.7,32.4,29.98,WNW,282,1.3,3.0,32,0.00,OVC,,0.00,531.0,WeatherDisplay:10.37,2013-01-07 21:44:00,
2013-01-07 13:49:00,63.0,30.2,29.98,WSW,243,1.6,2.3,29,0.00,OVC,,0.00,524.0,WeatherDisplay:10.37,2013-01-07 21:49:00,
2013-01-07 13:54:00,63.5,30.6,29.98,NE,56,0.5,3.5,29,0.00,OVC,,0.00,512.0,WeatherDisplay:10.37,2013-01-07 21:54:00,
2013-01-07 13:59:00,63.3,27.8,29.98,NE,37,2.2,5.8,26,0.00,OVC,,0.00,501.0,WeatherDisplay:10.37,2013-01-07 21:59:00,
2013-01-07 14:05:00,62.7,28.2,29.98,ESE,103,1.3,3.5,27,0.00,OVC,,0.00,494.0,WeatherDisplay:10.37,2013-01-07 22:05:00,
2013-01-07 14:10:00,62.7,28.2,29.97,SE,136,0.9,3.5,27,0.00,OVC,,0.00,483.0,WeatherDisplay:10.37,2013-01-07 22:10:00,
2013-01-07 14:15:00,62.7,28.2,29.97,East,85,1.2,2.3,27,0.00,OVC,,0.00,473.0,WeatherDisplay:10.37,2013-01-07 22:15:00,
2013-01-07 14:20:00,62.8,28.3,29.97,NE,42,0.8,3.5,27,0.00,OVC,,0.00,459.0,WeatherDisplay:10.37,2013-01-07 22:20:00,
2013-01-07 14:25:00,62.9,29.3,29.97,NNE,33,1.6,2.0,28,0.00,OVC,,0.00,445.0,WeatherDisplay:10.37,2013-01-07 22:25:00,
2013-01-07 14:30:00,63.0,27.5,29.97,NE,37,0.6,1.1,26,0.00,OVC,,0.00,432.0,WeatherDisplay:10.37,2013-01-07 22:30:00,
2013-01-07 14:35:00,63.8,26.3,29.97,West,271,1.3,3.5,24,0.00,OVC,,0.00,418.0,WeatherDisplay:10.37,2013-01-07 22:35:00,
2013-01-07 14:40:00,64.2,29.5,29.97,NNW,328,2.0,7.0,27,0.00,OVC,,0.00,406.0,WeatherDisplay:10.37,2013-01-07 22:40:00,
2013-01-07 14:45:00,63.9,28.3,29.97,East,84,1.6,3.5,26,0.00,OVC,,0.00,394.0,WeatherDisplay:10.37,2013-01-07 22:45:00,
2013-01-07 14:50:00,63.6,28.1,29.97,NNW,337,2.0,12.0,26,0.00,OVC,,0.00,380.0,WeatherDisplay:10.37,2013-01-07 22:50:00,
2013-01-07 14:55:00,63.3,27.8,29.97,NE,40,3.2,5.8,26,0.00,OVC,,0.00,364.0,WeatherDisplay:10.37,2013-01-07 22:55:00,
2013-01-07 15:00:00,62.9,27.5,29.98,NNE,12,3.0,4.6,26,0.00,OVC,,0.00,350.0,WeatherDisplay:10.37,2013-01-07 23:00:00,
2013-01-07 15:05:00,62.6,28.1,29.98,NW,317,1.5,8.1,27,0.00,CLR,,0.00,334.0,WeatherDisplay:10.37,2013-01-07 23:05:00,
2013-01-07 15:10:00,62.2,27.8,29.98,NNE,28,2.0,8.0,27,0.00,CLR,,0.00,320.0,WeatherDisplay:10.37,2013-01-07 23:10:00,
2013-01-07 15:15:00,62.0,26.7,29.98,WNW,298,3.0,8.1,26,0.00,CLR,,0.00,306.0,WeatherDisplay:10.37,2013-01-07 23:15:00,
2013-01-07 15:20:00,61.5,27.2,29.98,NNE,29,3.0,9.0,27,0.00,CLR,,0.00,146.0,WeatherDisplay:10.37,2013-01-07 23:20:00,
2013-01-07 15:25:00,60.9,26.7,29.98,NE,44,2.2,3.5,27,0.00,CLR,,0.00,239.0,WeatherDisplay:10.37,2013-01-07 23:25:00,
2013-01-07 15:30:00,60.6,26.4,29.98,NE,38,2.0,5.0,27,0.00,CLR,,0.00,223.0,WeatherDisplay:10.37,2013-01-07 23:30:00,
2013-01-07 15:35:00,60.5,27.2,29.98,ENE,57,1.4,3.5,28,0.00,CLR,,0.00,193.0,WeatherDisplay:10.37,2013-01-07 23:35:00,
2013-01-07 15:40:00,60.1,25.9,29.98,NE,52,3.0,8.0,27,0.00,CLR,,0.00,162.0,WeatherDisplay:10.37,2013-01-07 23:40:00,
2013-01-07 15:45:00,59.8,26.6,29.98,NE,53,2.0,12.0,28,0.00,CLR,,0.00,181.0,WeatherDisplay:10.37,2013-01-07 23:45:00,
2013-01-07 15:50:00,59.8,25.7,29.98,ENE,57,2.9,9.2,27,0.00,CLR,,0.00,186.0,WeatherDisplay:10.37,2013-01-07 23:50:00,
2013-01-07 15:55:00,59.9,26.7,29.98,SSE,165,2.4,3.5,28,0.00,CLR,,0.00,171.0,WeatherDisplay:10.37,2013-01-07 23:55:00,
2013-01-07 16:00:00,60.0,26.8,29.98,NE,56,2.0,12.0,28,0.00,CLR,,0.00,156.0,WeatherDisplay:10.37,2013-01-08 00:00:00,
2013-01-07 16:05:00,59.9,25.8,29.98,ENE,58,4.6,7.0,27,0.00,CLR,,0.00,127.0,WeatherDisplay:10.37,2013-01-08 00:05:00,
2013-01-07 16:10:00,59.8,25.7,29.98,NE,55,4.1,6.9,27,0.00,CLR,,0.00,65.0,WeatherDisplay:10.37,2013-01-08 00:10:00,
2013-01-07 16:15:00,59.4,25.4,29.98,ENE,69,3.1,5.8,27,0.00,CLR,,0.00,56.0,WeatherDisplay:10.37,2013-01-08 00:15:00,
2013-01-07 16:20:00,59.0,25.9,29.98,SE,137,3.9,6.9,28,0.00,CLR,,0.00,40.0,WeatherDisplay:10.37,2013-01-08 00:20:00,
2013-01-07 16:25:00,58.8,24.9,29.98,ENE,59,3.0,3.5,27,0.00,CLR,,0.00,30.0,WeatherDisplay:10.37,2013-01-08 00:25:00,
2013-01-07 16:30:00,58.6,24.7,29.98,NE,45,3.4,6.0,27,0.00,CLR,,0.00,23.0,WeatherDisplay:10.37,2013-01-08 00:30:00,
2013-01-07 16:35:00,58.4,24.5,29.98,NNE,17,3.5,8.0,27,0.00,CLR,,0.00,18.0,WeatherDisplay:10.37,2013-01-08 00:35:00,
2013-01-07 16:40:00,58.1,24.3,29.98,East,82,4.9,9.2,27,0.00,CLR,,0.00,14.0,WeatherDisplay:10.37,2013-01-08 00:40:00,
2013-01-07 16:45:00,57.9,24.1,29.99,ENE,67,6.1,10.4,27,0.00,CLR,,0.00,12.0,WeatherDisplay:10.37,2013-01-08 00:45:00,
2013-01-07 16:50:00,57.8,24.0,29.99,NNE,28,3.9,5.8,27,0.00,CLR,,0.00,9.0,WeatherDisplay:10.37,2013-01-08 00:50:00,
2013-01-07 16:55:00,57.6,22.9,29.99,North,5,3.4,5.0,26,0.00,CLR,,0.00,0.0,WeatherDisplay:10.37,2013-01-08 00:55:00,
2013-01-07 17:00:00,57.6,22.9,29.99,East,86,4.9,8.0,26,0.00,CLR,,0.00,0.0,WeatherDisplay:10.37,2013-01-08 01:00:00,
2013-01-07 17:05:00,57.5,23.7,29.99,NW,319,3.5,8.1,27,0.00,CLR,,0.00,0.0,WeatherDisplay:10.37,2013-01-08 01:05:00,
2013-01-07 17:10:00,57.3,22.7,29.99,ENE,67,3.5,6.9,26,0.00,CLR,,0.00,0.0,WeatherDisplay:10.37,2013-01-08 01:10:00,
2013-01-07 17:15:00,57.3,22.7,30.00,NNE,30,2.7,5.8,26,0.00,CLR,,0.00,0.0,WeatherDisplay:10.37,2013-01-08 01:15:00,
2013-01-07 17:20:00,57.2,22.6,30.00,ENE,63,2.1,6.9,26,0.00,CLR,,0.00,0.0,WeatherDisplay:10.37,2013-01-08 01:20:00,
2013-01-07 17:25:00,57.1,21.6,30.00,North,355,2.5,4.6,25,0.00,CLR,,0.00,0.0,WeatherDisplay:10.37,2013-01-08 01:25:00,
2013-01-07 17:30:00,57.0,22.4,30.00,NNW,346,2.5,3.5,26,0.00,CLR,,0.00,0.0,WeatherDisplay:10.37,2013-01-08 01:30:00,
2013-01-07 17:35:00,56.9,22.3,30.00,NNE,28,2.2,3.5,26,0.00,CLR,,0.00,0.0,WeatherDisplay:10.37,2013-01-08 01:35:00,
2013-01-07 17:40:00,56.9,22.3,30.00,NE,42,2.1,3.5,26,0.00,CLR,,0.00,0.0,WeatherDisplay:10.37,2013-01-08 01:40:00,
2013-01-07 17:45:00,56.7,22.2,30.00,SE,132,1.8,3.5,26,0.00,CLR,,0.00,0.0,WeatherDisplay:10.37,2013-01-08 01:45:00,
2013-01-07 17:50:00,56.2,24.3,30.00,SW,221,0.3,1.1,29,0.00,CLR,,0.00,0.0,WeatherDisplay:10.37,2013-01-08 01:50:00,
2013-01-07 17:55:00,55.1,23.4,30.00,NE,44,0.5,1.1,29,0.00,CLR,,0.00,0.0,WeatherDisplay:10.37,2013-01-08 01:55:00,
2013-01-07 18:00:00,54.4,23.6,30.00,SW,232,0.0,0.0,30,0.00,CLR,,0.00,0.0,WeatherDisplay:10.37,2013-01-08 02:00:00,
2013-01-07 18:05:00,53.8,24.6,30.00,SSW,213,0.6,2.3,32,0.00,CLR,,0.00,0.0,WeatherDisplay:10.37,2013-01-08 02:05:00,
2013-01-07 18:10:00,53.3,24.2,30.00,SSE,166,0.2,1.1,32,0.00,CLR,,0.00,0.0,WeatherDisplay:10.37,2013-01-08 02:10:00,
2013-01-07 18:15:00,52.8,24.5,30.00,SW,223,0.0,1.1,33,0.00,CLR,,0.00,0.0,WeatherDisplay:10.37,2013-01-08 02:15:00,
2013-01-07 18:20:00,52.5,24.2,30.00,NNW,335,0.0,0.0,33,0.00,CLR,,0.00,0.0,WeatherDisplay:10.37,2013-01-08 02:20:00,
2013-01-07 18:25:00,52.4,24.1,30.01,NNW,335,0.0,0.0,33,0.00,CLR,,0.00,0.0,WeatherDisplay:10.37,2013-01-08 02:25:00,
2013-01-07 18:30:00,52.0,24.5,30.01,NNW,335,0.0,0.0,34,0.00,CLR,,0.00,0.0,WeatherDisplay:10.37,2013-01-08 02:30:00,
2013-01-07 18:35:00,51.6,25.5,30.01,NNW,335,0.0,0.0,36,0.00,CLR,,0.00,0.0,WeatherDisplay:10.37,2013-01-08 02:35:00,
2013-01-07 18:40:00,51.1,24.4,30.00,NW,317,0.0,0.0,35,0.00,CLR,,0.00,0.0,WeatherDisplay:10.37,2013-01-08 02:40:00,
2013-01-07 18:45:00,50.6,25.3,30.00,West,262,0.1,2.3,37,0.00,CLR,,0.00,0.0,WeatherDisplay:10.37,2013-01-08 02:45:00,
2013-01-07 18:50:00,50.2,26.2,30.01,West,262,0.0,0.0,39,0.00,CLR,,0.00,0.0,WeatherDisplay:10.37,2013-01-08 02:50:00,
2013-01-07 18:55:00,49.8,25.2,30.01,WSW,241,0.0,0.0,38,0.00,CLR,,0.00,0.0,WeatherDisplay:10.37,2013-01-08 02:55:00,
2013-01-07 19:00:00,49.4,26.1,30.01,WSW,242,0.0,0.0,40,0.00,CLR,,0.00,0.0,WeatherDisplay:10.37,2013-01-08 03:00:00,
2013-01-07 19:05:00,49.0,25.7,30.01,WSW,242,0.0,0.0,40,0.00,CLR,,0.00,0.0,WeatherDisplay:10.37,2013-01-08 03:05:00,
2013-01-07 19:10:00,48.6,25.9,30.01,WSW,242,0.0,0.0,41,0.00,CLR,,0.00,0.0,WeatherDisplay:10.37,2013-01-08 03:10:00,
2013-01-07 19:15:00,48.4,26.3,30.01,WSW,242,0.0,0.0,42,0.00,CLR,,0.00,0.0,WeatherDisplay:10.37,2013-01-08 03:15:00,
2013-01-07 19:20:00,47.9,25.3,30.01,NW,315,0.1,1.1,41,0.00,CLR,,0.00,0.0,WeatherDisplay:10.37,2013-01-08 03:20:00,
2013-01-07 19:25:00,47.4,26.6,30.01,NNE,22,0.0,0.0,44,0.00,CLR,,0.00,0.0,WeatherDisplay:10.37,2013-01-08 03:25:00,
2013-01-07 19:30:00,46.7,26.5,30.01,NNE,21,0.0,0.0,45,0.00,CLR,,0.00,0.0,WeatherDisplay:10.37,2013-01-08 03:30:00,
2013-01-07 19:35:00,46.4,27.2,30.02,NNE,15,0.1,1.0,47,0.00,CLR,,0.00,0.0,WeatherDisplay:10.37,2013-01-08 03:35:00,
2013-01-07 19:40:00,46.0,26.4,30.02,NE,34,0.0,1.1,46,0.00,CLR,,0.00,0.0,WeatherDisplay:10.37,2013-01-08 03:40:00,
2013-01-07 19:45:00,45.7,27.1,30.02,NE,47,0.1,1.1,48,0.00,CLR,,0.00,0.0,WeatherDisplay:10.37,2013-01-08 03:45:00,
2013-01-07 19:50:00,45.8,26.7,30.02,ENE,74,2.0,2.3,47,0.00,CLR,,0.00,0.0,WeatherDisplay:10.37,2013-01-08 03:50:00,
2013-01-07 19:55:00,46.0,25.8,30.02,ENE,58,0.1,2.3,45,0.00,CLR,,0.00,0.0,WeatherDisplay:10.37,2013-01-08 03:55:00,
2013-01-07 20:01:00,46.1,27.5,30.02,SSW,208,0.1,2.3,48,0.00,CLR,,0.00,0.0,WeatherDisplay:10.37,2013-01-08 04:01:00,
2013-01-07 20:06:00,45.9,26.8,30.02,SSW,208,0.0,0.0,47,0.00,CLR,,0.00,0.0,WeatherDisplay:10.37,2013-01-08 04:06:00,
2013-01-07 20:11:00,45.7,27.1,30.03,WSW,255,0.0,0.0,48,0.00,CLR,,0.00,0.0,WeatherDisplay:10.37,2013-01-08 04:11:00,
2013-01-07 20:16:00,45.5,27.4,30.03,West,269,0.0,0.0,49,0.00,CLR,,0.00,0.0,WeatherDisplay:10.37,2013-01-08 04:16:00,
2013-01-07 20:21:00,45.1,27.6,30.03,West,269,0.0,0.0,50,0.00,CLR,,0.00,0.0,WeatherDisplay:10.37,2013-01-08 04:21:00,
2013-01-07 20:26:00,44.4,27.9,30.03,NE,46,0.0,0.0,52,0.00,CLR,,0.00,0.0,WeatherDisplay:10.37,2013-01-08 04:26:00,
2013-01-07 20:31:00,44.1,27.6,30.03,NE,46,0.0,0.0,52,0.00,CLR,,0.00,0.0,WeatherDisplay:10.37,2013-01-08 04:31:00,
2013-01-07 20:36:00,44.0,28.4,30.04,NE,46,0.0,0.0,54,0.00,CLR,,0.00,0.0,WeatherDisplay:10.37,2013-01-08 04:36:00,
2013-01-07 20:41:00,43.6,28.9,30.03,ENE,60,0.1,1.1,56,0.00,CLR,,0.00,0.0,WeatherDisplay:10.37,2013-01-08 04:41:00,
2013-01-07 20:46:00,42.9,27.8,30.04,ENE,60,0.0,0.0,55,0.00,CLR,,0.00,0.0,WeatherDisplay:10.37,2013-01-08 04:46:00,
2013-01-07 20:51:00,42.6,28.8,30.04,North,355,0.0,0.0,58,0.00,CLR,,0.00,0.0,WeatherDisplay:10.37,2013-01-08 04:51:00,
2013-01-07 20:56:00,42.4,27.8,30.04,WNW,286,0.7,2.3,56,0.00,CLR,,0.00,0.0,WeatherDisplay:10.37,2013-01-08 04:56:00,
2013-01-07 21:00:00,42.4,28.2,30.05,NW,315,0.0,2.0,57,0.00,CLR,,0.00,0.0,WeatherDisplay:10.37,2013-01-08 05:00:00,
2013-01-07 21:03:00,42.3,27.7,30.05,WNW,288,0.0,0.0,56,0.00,CLR,,0.00,0.0,WeatherDisplay:10.37,2013-01-08 05:03:00,
2013-01-07 21:08:00,42.7,28.1,30.04,WNW,282,0.0,0.0,56,0.00,CLR,,0.00,0.0,WeatherDisplay:10.37,2013-01-08 05:08:00,
2013-01-07 21:13:00,42.4,27.8,30.05,East,83,0.0,3.5,56,0.00,CLR,,0.00,0.0,WeatherDisplay:10.37,2013-01-08 05:13:00,
2013-01-07 21:18:00,42.3,27.7,30.05,East,82,0.6,2.0,56,0.00,CLR,,0.00,0.0,WeatherDisplay:10.37,2013-01-08 05:18:00,
2013-01-07 21:23:00,42.1,27.9,30.05,East,82,0.0,0.0,57,0.00,CLR,,0.00,0.0,WeatherDisplay:10.37,2013-01-08 05:23:00,
2013-01-07 21:29:00,42.0,28.3,30.05,SSE,157,0.0,0.0,58,0.00,CLR,,0.00,0.0,WeatherDisplay:10.37,2013-01-08 05:29:00,
2013-01-07 21:34:00,41.7,28.0,30.05,SE,142,0.0,0.0,58,0.00,CLR,,0.00,0.0,WeatherDisplay:10.37,2013-01-08 05:34:00,
2013-01-07 21:39:00,41.5,28.2,30.05,SE,142,0.0,0.0,59,0.00,CLR,,0.00,0.0,WeatherDisplay:10.37,2013-01-08 05:39:00,
2013-01-07 21:44:00,41.1,28.3,30.05,SE,142,0.0,0.0,60,0.00,CLR,,0.00,0.0,WeatherDisplay:10.37,2013-01-08 05:44:00,
2013-01-07 21:49:00,40.8,28.0,30.05,SE,142,0.0,0.0,60,0.00,CLR,,0.00,0.0,WeatherDisplay:10.37,2013-01-08 05:49:00,
2013-01-07 21:54:00,40.6,28.2,30.05,SE,142,0.0,0.0,61,0.00,CLR,,0.00,0.0,WeatherDisplay:10.37,2013-01-08 05:54:00,
2013-01-07 21:59:00,40.4,28.0,30.05,SE,142,0.0,0.0,61,0.00,CLR,,0.00,0.0,WeatherDisplay:10.37,2013-01-08 05:59:00,
2013-01-07 22:04:00,40.2,27.8,30.05,SE,142,0.0,0.0,61,0.00,CLR,,0.00,0.0,WeatherDisplay:10.37,2013-01-08 06:04:00,
2013-01-07 22:09:00,40.2,27.8,30.06,SE,142,0.0,0.0,61,0.00,CLR,,0.00,0.0,WeatherDisplay:10.37,2013-01-08 06:09:00,
2013-01-07 22:14:00,40.1,28.1,30.06,SE,142,0.0,0.0,62,0.00,CLR,,0.00,0.0,WeatherDisplay:10.37,2013-01-08 06:14:00,
2013-01-07 22:19:00,40.0,28.0,30.06,SE,142,0.0,0.0,62,0.00,CLR,,0.00,0.0,WeatherDisplay:10.37,2013-01-08 06:19:00,
2013-01-07 22:24:00,40.0,27.6,30.06,SE,142,0.0,0.0,61,0.00,CLR,,0.00,0.0,WeatherDisplay:10.37,2013-01-08 06:24:00,
2013-01-07 22:29:00,40.3,27.5,30.07,SE,142,0.0,0.0,60,0.00,CLR,,0.00,0.0,WeatherDisplay:10.37,2013-01-08 06:29:00,
2013-01-07 22:34:00,40.3,28.3,30.07,SE,142,0.0,0.0,62,0.00,CLR,,0.00,0.0,WeatherDisplay:10.37,2013-01-08 06:34:00,
2013-01-07 22:39:00,40.2,27.8,30.06,SE,142,0.0,0.0,61,0.00,CLR,,0.00,0.0,WeatherDisplay:10.37,2013-01-08 06:39:00,
2013-01-07 22:44:00,40.3,27.9,30.06,SE,142,0.0,0.0,61,0.00,CLR,,0.00,0.0,WeatherDisplay:10.37,2013-01-08 06:44:00,
2013-01-07 22:49:00,40.1,27.7,30.06,SE,142,0.0,0.0,61,0.00,CLR,,0.00,0.0,WeatherDisplay:10.37,2013-01-08 06:49:00,
2013-01-07 22:54:00,39.8,28.2,30.06,SE,142,0.0,0.0,63,0.00,CLR,,0.00,0.0,WeatherDisplay:10.37,2013-01-08 06:54:00,
2013-01-07 22:59:00,39.6,27.6,30.06,SSE,166,0.0,0.0,62,0.00,CLR,,0.00,0.0,WeatherDisplay:10.37,2013-01-08 06:59:00,
2013-01-07 23:04:00,39.6,27.6,30.06,SSE,166,0.0,0.0,62,0.00,CLR,,0.00,0.0,WeatherDisplay:10.37,2013-01-08 07:04:00,
2013-01-07 23:09:00,39.6,27.2,30.06,SSE,166,0.0,0.0,61,0.00,CLR,,0.00,0.0,WeatherDisplay:10.37,2013-01-08 07:09:00,
2013-01-07 23:14:00,39.5,27.9,30.06,SSE,166,0.0,0.0,63,0.00,CLR,,0.00,0.0,WeatherDisplay:10.37,2013-01-08 07:14:00,
2013-01-07 23:19:00,39.4,27.5,30.06,SSE,167,0.0,0.0,62,0.00,CLR,,0.00,0.0,WeatherDisplay:10.37,2013-01-08 07:19:00,
2013-01-07 23:24:00,39.3,27.4,30.07,SSE,167,0.0,0.0,62,0.00,CLR,,0.00,0.0,WeatherDisplay:10.37,2013-01-08 07:24:00,
2013-01-07 23:29:00,39.1,27.6,30.07,SSE,167,0.0,0.0,63,0.00,CLR,,0.00,0.0,WeatherDisplay:10.37,2013-01-08 07:29:00,
2013-01-07 23:34:00,39.1,27.6,30.07,SSE,167,0.0,0.0,63,0.00,CLR,,0.00,0.0,WeatherDisplay:10.37,2013-01-08 07:34:00,
2013-01-07 23:39:00,39.2,27.7,30.06,SSE,167,0.0,0.0,63,0.00,CLR,,0.00,0.0,WeatherDisplay:10.37,2013-01-08 07:39:00,
2013-01-07 23:44:00,39.4,27.1,30.06,SSE,167,0.0,0.0,61,0.00,CLR,,0.00,0.0,WeatherDisplay:10.37,2013-01-08 07:44:00,
2013-01-07 23:49:00,39.5,26.8,30.06,SSE,167,0.0,0.0,60,0.00,CLR,,0.00,0.0,WeatherDisplay:10.37,2013-01-08 07:49:00,
2013-01-07 23:54:00,39.7,26.1,30.06,SSE,163,0.0,0.0,58,0.00,CLR,,0.00,0.0,WeatherDisplay:10.37,2013-01-08 07:54:00,
2013-01-07 23:59:00,39.8,25.4,30.06,SSE,163,0.0,0.0,56,0.00,CLR,,0.00,0.0,WeatherDisplay:10.37,2013-01-08 07:59:00,